• Join FlightAware (Why Join?)
  • Login
  • US Flag 
06:19PM EDT


 

Airport Tracker/Info


-or-


 

Live Flight TrackerFlight Track Log ✈ UAL108 ✈ 28-Aug-2013 ✈ KEWR - EGPH / EDI

Flight Track Log - Related Links

Times and Time Zones

All times are in EDT time to prevent confusion due to time zone crossing. See the UAL108 flight status page for this flight to view local times or setup timezone preferences in your user account.

Time Position Orientation Groundspeed Altitude Reporting Facility
EDT Latitude Longitude Course Direction KTS MPH feet Rate Location/Type
10:24PM 40.6645 -74.1786 205° Southwest 183 211 800  Level FlightAware ADS-B
10:25PM 40.6474 -74.1957 217° Southwest 186 214 1,800 2,040 Climbing FlightAware ADS-B
10:25PM 40.6419 -74.2096 242° Southwest 211 243 2,100 1,380 Climbing FlightAware ADS-B
10:25PM 40.6396 -74.2388 264° West 240 276 2,600 1,980 Climbing FlightAware ADS-B
10:26PM 40.6610 -74.2820 303° West 258 297 4,000 2,460 Climbing FlightAware
10:26PM 40.6760 -74.2879 343° North 260 299 4,600 2,700 Climbing FlightAware ADS-B
10:27PM 40.7110 -74.2720 19° North 266 306 6,000 2,760 Climbing FlightAware
10:27PM 40.7205 -74.2602 43° Northeast 269 310 6,500 2,820 Climbing FlightAware ADS-B
10:27PM 40.7301 -74.2468 47° Northeast 272 313 7,000 2,760 Climbing FlightAware ADS-B
10:27PM 40.7460 -74.2245 47° Northeast 273 314 7,900 3,000 Climbing FlightAware ADS-B
10:27PM 40.7610 -74.2030 47° Northeast 276 318 8,800 2,520 Climbing FlightAware ADS-B
10:28PM 40.7764 -74.1804 48° Northeast 287 330 9,400 1,920 Climbing FlightAware ADS-B
10:28PM 40.7912 -74.1591 47° Northeast 299 344 9,900 600 Climbing FlightAware ADS-B
10:29PM 40.8259 -74.0937 55° Northeast 303 349 10,000 60 Climbing FlightAware ADS-B
10:29PM 40.8535 -74.0362 58° Northeast 355 409 10,000 540 Level FlightAware ADS-B
10:30PM 40.8827 -73.9816 55° Northeast 369 425 10,600 1,920 Climbing FlightAware ADS-B
10:30PM 40.9141 -73.9276 52° Northeast 372 428 12,000 2,640 Climbing FlightAware ADS-B
10:31PM 40.9510 -73.8650 52° Northeast 379 436 13,500 2,520 Climbing FlightAware
10:31PM 40.9900 -73.7980 52° Northeast 383 441 15,000 2,340 Climbing FlightAware
10:32PM 41.0250 -73.7390 52° Northeast 391 450 16,200 2,100 Climbing FlightAware
10:32PM 41.0610 -73.6780 52° Northeast 402 463 17,300 2,100 Climbing FlightAware
10:33PM 41.0970 -73.6150 53° Northeast 407 468 18,500 2,220 Climbing FlightAware
10:34PM 41.1400 -73.5300 56° Northeast 415 478 20,000 1,980 Climbing FlightAware
10:34PM 41.1790 -73.4520 56° Northeast 422 486 21,100 1,860 Climbing FlightAware
10:35PM 41.2200 -73.3710 56° Northeast 428 493 22,300 1,800 Climbing FlightAware
10:36PM 41.2610 -73.2910 56° Northeast 437 503 23,300 1,620 Climbing FlightAware
10:36PM 41.2960 -73.2220 56° Northeast 442 509 24,200 1,560 Climbing FlightAware
10:37PM 41.3350 -73.1440 56° Northeast 450 518 25,000 1,380 Climbing FlightAware
10:37PM 41.3770 -73.0610 56° Northeast 459 528 25,800 1,440 Climbing FlightAware
10:38PM 41.4290 -72.9590 56° Northeast 467 537 26,900 1,500 Climbing FlightAware
10:39PM 41.4800 -72.8570 56° Northeast 474 545 27,900 1,380 Climbing FlightAware
10:39PM 41.5230 -72.7700 57° Northeast 479 551 28,700 1,260 Climbing FlightAware
10:40PM 41.5710 -72.6770 55° Northeast 483 556 29,500 1,440 Climbing FlightAware
10:41PM 41.6230 -72.5910 51° Northeast 477 549 30,600 1,200 Climbing FlightAware
10:41PM 41.6650 -72.5230 50° Northeast 482 555 31,000 300 Climbing FlightAware
10:42PM 41.7270 -72.4300 48° Northeast 481 554 31,000  Level FlightAware
10:43PM 41.8040 -72.3150 48° Northeast 377 434 31,000  Level FlightAware
10:43PM 41.8710 -72.2120 49° Northeast 475 547 31,000  Level FlightAware
10:44PM 41.9260 -72.1260 49° Northeast 473 544 31,000  Level FlightAware
10:45PM 41.9720 -72.0540 49° Northeast 473 544 31,000  Level FlightAware
10:45PM 42.0510 -71.9320 49° Northeast 474 545 31,000  Level FlightAware
10:46PM 42.1010 -71.8540 49° Northeast 475 547 31,000  Level FlightAware
10:47PM 42.1580 -71.7650 49° Northeast 473 544 31,000  Level FlightAware
10:47PM 42.2090 -71.6850 49° Northeast 474 545 31,000  Level FlightAware
10:48PM 42.2620 -71.6030 49° Northeast 475 547 31,000  Level FlightAware
10:48PM 42.3110 -71.5250 50° Northeast 477 549 31,000 420 Level FlightAware
10:49PM 42.3620 -71.4450 49° Northeast 473 544 31,500 1,080 Climbing FlightAware
10:50PM 42.4120 -71.3660 49° Northeast 475 547 32,300 1,320 Climbing FlightAware
10:50PM 42.4620 -71.2860 50° Northeast 475 547 33,100 1,440 Climbing FlightAware
10:51PM 42.5120 -71.2070 49° Northeast 474 545 34,000 1,440 Climbing FlightAware
10:51PM 42.5610 -71.1290 50° Northeast 473 544 34,800 840 Climbing FlightAware
10:52PM 42.6120 -71.0480 49° Northeast 475 547 35,000 120 Climbing FlightAware
10:53PM 42.6620 -70.9680 50° Northeast 476 548 35,000  Level FlightAware
10:53PM 42.7120 -70.8880 50° Northeast 473 544 35,000  Level FlightAware
10:54PM 42.7620 -70.8080 50° Northeast 464 534 35,000  Level FlightAware
10:54PM 42.8110 -70.7280 50° Northeast 462 532 35,000  Level FlightAware
10:55PM 42.8590 -70.6500 50° Northeast 461 531 35,000  Level FlightAware
10:56PM 42.9240 -70.5450 50° Northeast 459 528 35,000  Level FlightAware
10:56PM 42.9720 -70.4660 50° Northeast 459 528 35,000  Level FlightAware
10:57PM 43.0210 -70.3870 50° Northeast 458 527 35,000  Level FlightAware
10:57PM 43.0750 -70.2990 50° Northeast 457 526 35,000  Level FlightAware
10:58PM 43.1160 -70.2310 50° Northeast 457 526 35,000  Level FlightAware
10:59PM 43.1940 -70.1020 50° Northeast 458 527 35,000  Level FlightAware
11:00PM 43.2420 -70.0230 50° Northeast 460 529 35,000  Level FlightAware
11:00PM 43.2980 -69.9310 50° Northeast 462 532 35,000  Level FlightAware
11:01PM 43.3590 -69.8290 51° Northeast 462 532 35,000  Level FlightAware
11:02PM 43.4270 -69.7160 50° Northeast 468 539 35,000  Level FlightAware
11:02PM 43.4710 -69.6410 51° Northeast 468 539 35,000  Level FlightAware
11:03PM 43.5220 -69.5580 50° Northeast 471 542 35,000  Level FlightAware
11:03PM 43.5730 -69.4720 51° Northeast 479 551 35,000  Level FlightAware
11:04PM 43.6210 -69.3910 51° Northeast 479 551 35,000  Level FlightAware
11:05PM 43.6710 -69.3060 51° Northeast 481 554 35,000  Level FlightAware
11:05PM 43.7160 -69.2300 51° Northeast 482 555 35,000  Level FlightAware
11:06PM 43.7670 -69.1420 51° Northeast 482 555 35,000  Level FlightAware
11:06PM 43.8170 -69.0580 50° Northeast 484 557 35,000  Level FlightAware
11:07PM 43.8650 -68.9750 51° Northeast 484 557 35,000  Level FlightAware
11:08PM 43.9190 -68.8830 51° Northeast 589 678 35,000  Level FlightAware
11:09PM 44.0090 -68.7280 51° Northeast 484 557 35,000  Level FlightAware
11:09PM 44.0590 -68.6420 51° Northeast 485 558 35,000  Level FlightAware
11:10PM 44.1100 -68.5540 51° Northeast 485 558 35,000  Level FlightAware
11:10PM 44.1540 -68.4760 52° Northeast 486 559 35,000  Level FlightAware
11:11PM 44.2020 -68.3930 51° Northeast 484 557 35,000  Level FlightAware
11:12PM 44.2530 -68.3050 51° Northeast 483 556 35,000  Level FlightAware
11:12PM 44.3050 -68.2130 52° Northeast 483 556 35,000  Level FlightAware
11:13PM 44.3470 -68.1380 52° Northeast 483 556 35,000  Level FlightAware
11:13PM 44.3950 -68.0550 51° Northeast 484 557 35,000  Level FlightAware
11:14PM 44.4460 -67.9640 52° Northeast 483 556 35,000  Level FlightAware
11:14PM 44.4990 -67.8700 52° Northeast 483 556 35,000  Level FlightAware
11:15PM 44.5440 -67.7910 51° Northeast 484 557 35,000  Level FlightAware
11:16PM 44.5920 -67.7030 53° Northeast 485 558 35,000  Level FlightAware
11:16PM 44.6420 -67.6140 52° Northeast 485 558 35,000  Level FlightAware
11:17PM 44.6890 -67.5300 52° Northeast 485 558 35,000  Level FlightAware
11:17PM 44.7420 -67.4350 52° Northeast 485 558 35,000  Level FlightAware
11:18PM 44.7860 -67.3550 52° Northeast 484 557 35,000  Level FlightAware
11:19PM 44.8450 -67.2490 52° Northeast 480 552 35,000  Level FlightAware
11:19PM 44.8920 -67.1630 52° Northeast 481 554 35,000  Level FlightAware
11:20PM 44.9340 -67.0880 52° Northeast 479 551 35,000  Level FlightAware
11:20PM 44.9850 -67.0070 48° Northeast 485 558 35,000  Level FlightAware
11:21PM 45.0370 -66.9220 49° Northeast 481 554 35,000  Level FlightAware
11:22PM 45.0950 -66.8260 49° Northeast 482 555 35,000  Level FlightAware
11:22PM 45.1470 -66.7400 49° Northeast 484 557 35,000  Level FlightAware
11:23PM 45.1970 -66.6560 50° Northeast 485 558 35,000  Level FlightAware
11:23PM 45.2420 -66.5810 50° Northeast 488 562 35,000  Level FlightAware
11:24PM 45.3000 -66.4830 50° Northeast 488 562 35,000  Level FlightAware
11:24PM 45.3450 -66.4070 50° Northeast 496 571 35,000  Level FlightAware
11:25PM 45.4040 -66.3060 50° Northeast 498 573 35,000  Level FlightAware
11:26PM 45.4560 -66.2190 50° Northeast 499 574 35,000  Level FlightAware
11:26PM 45.5010 -66.1430 50° Northeast 500 575 35,000  Level FlightAware
11:27PM 45.5520 -66.0550 50° Northeast 502 578 35,000  Level FlightAware
11:27PM 45.6120 -65.9530 50° Northeast 504 580 35,000  Level FlightAware
11:28PM 45.6560 -65.8780 50° Northeast 505 581 35,000  Level FlightAware
11:29PM 45.7160 -65.7740 50° Northeast 505 581 35,000  Level FlightAware
11:29PM 45.7660 -65.6880 50° Northeast 507 583 35,000  Level FlightAware
11:30PM 45.8040 -65.6230 50° Northeast 507 583 35,000  Level FlightAware
11:30PM 45.8500 -65.5440 50° Northeast 507 583 35,000  Level FlightAware
11:31PM 45.8960 -65.4650 50° Northeast 507 583 35,000  Level FlightAware
11:32PM 45.9420 -65.3860 50° Northeast 507 583 35,000  Level FlightAware
11:32PM 45.9880 -65.3070 50° Northeast 507 583 35,000  Level FlightAware
11:33PM 46.0350 -65.2260 50° Northeast 507 583 35,000  Level FlightAware
11:33PM 46.0820 -65.1470 49° Northeast 507 583 35,000  Level FlightAware
11:34PM 46.1280 -65.0670 50° Northeast 507 583 35,000  Level FlightAware
11:35PM 46.1740 -64.9880 50° Northeast 507 583 35,000  Level FlightAware
11:35PM 46.2200 -64.9080 50° Northeast 507 583 35,000  Level FlightAware
11:36PM 46.2660 -64.8290 50° Northeast 507 583 35,000  Level FlightAware
11:36PM 46.3130 -64.7470 50° Northeast 507 583 35,000  Level FlightAware
11:37PM 46.3620 -64.6630 50° Northeast 507 583 35,000  Level FlightAware
11:38PM 46.4100 -64.5810 50° Northeast 507 583 35,000  Level FlightAware
11:38PM 46.4540 -64.5040 50° Northeast 507 583 35,000  Level FlightAware
11:39PM 46.5010 -64.4240 50° Northeast 507 583 35,000  Level FlightAware
11:39PM 46.6667 -64.0500 50° Northeast 510 587 35,000  Level Gander Center
11:40PM 46.7333 -63.9667 41° Northeast 510 587 35,000  Level Gander Center
11:41PM 46.8000 -63.8000 60° Northeast 510 587 35,000  Level Gander Center
11:42PM 46.9000 -63.6333 49° Northeast 520 598 35,000  Level Gander Center
11:43PM 46.9833 -63.4667 54° Northeast 520 598 35,000  Level Gander Center
11:44PM 47.0833 -63.3000 49° Northeast 520 598 35,000  Level Gander Center
11:45PM 47.1667 -63.1167 56° Northeast 520 598 35,000  Level Gander Center
11:46PM 47.2500 -62.9500 54° Northeast 510 587 35,000  Level Gander Center
11:47PM 47.3333 -62.7833 54° Northeast 510 587 35,000  Level Gander Center
11:48PM 47.4167 -62.6167 53° Northeast 510 587 35,000  Level Gander Center
11:49PM 47.5000 -62.4500 53° Northeast 510 587 35,000  Level Gander Center
11:50PM 47.5833 -62.3000 50° Northeast 510 587 35,000  Level Gander Center
11:51PM 47.6833 -62.1000 53° Northeast 510 587 35,000  Level Gander Center
11:52PM 47.7667 -61.9500 50° Northeast 520 598 35,000  Level Gander Center
11:53PM 47.8500 -61.7833 53° Northeast 510 587 35,000  Level Gander Center
11:54PM 47.9333 -61.6000 56° Northeast 510 587 35,000  Level Gander Center
11:55PM 48.0167 -61.4333 53° Northeast 520 598 35,000  Level Gander Center
11:56PM 48.1167 -61.2500 51° Northeast 510 587 35,000  Level Gander Center
11:57PM 48.1833 -61.0833 59° Northeast 520 598 35,000  Level Gander Center
11:58PM 48.2833 -60.9000 51° Northeast 510 587 35,000  Level Gander Center
11:59PM 48.3667 -60.7500 50° Northeast 510 587 35,000  Level Gander Center
12:05AM 48.8660 -59.6890 50° Northeast 522 601 35,000  Level FlightAware
12:06AM 48.9140 -59.5830 55° Northeast 522 601 35,000  Level FlightAware
12:06AM 48.9670 -59.4680 55° Northeast 523 602 35,000  Level FlightAware
12:07AM 49.0110 -59.3720 55° Northeast 525 604 35,000  Level FlightAware
12:07AM 49.0580 -59.2690 55° Northeast 526 605 35,000  Level FlightAware
12:08AM 49.1060 -59.1620 56° Northeast 527 606 35,000  Level FlightAware
12:09AM 49.1560 -59.0510 55° Northeast 528 608 35,000  Level FlightAware
12:09AM 49.2050 -58.9420 55° Northeast 529 609 35,000  Level FlightAware
12:10AM 49.2510 -58.8400 55° Northeast 531 611 35,000  Level FlightAware
12:10AM 49.3090 -58.7100 56° Northeast 532 612 35,000  Level FlightAware
12:11AM 49.3500 -58.6180 56° Northeast 532 612 35,000  Level FlightAware
12:11AM 49.3970 -58.5120 56° Northeast 532 612 35,000  Level FlightAware
12:12AM 49.4470 -58.3960 56° Northeast 533 613 35,000  Level FlightAware
12:13AM 49.5090 -58.2550 56° Northeast 533 613 35,000  Level FlightAware
12:13AM 49.5560 -58.1490 56° Northeast 533 613 35,000  Level FlightAware
12:14AM 49.6050 -58.0360 56° Northeast 534 615 35,000  Level FlightAware
12:14AM 49.6460 -57.9400 57° Northeast 533 613 35,000  Level FlightAware
12:15AM 49.7000 -57.8160 56° Northeast 534 615 35,000  Level FlightAware
12:16AM 49.7480 -57.7030 57° Northeast 531 611 35,000  Level FlightAware
12:16AM 49.7880 -57.6110 56° Northeast 527 606 35,000  Level FlightAware
12:17AM 49.8480 -57.4710 56° Northeast 520 598 35,000  Level FlightAware
12:18AM 49.8940 -57.3600 57° Northeast 521 600 35,000  Level FlightAware
12:18AM 49.9400 -57.2540 56° Northeast 522 601 35,000  Level FlightAware
12:19AM 49.9880 -57.1400 57° Northeast 522 601 35,000  Level FlightAware
12:19AM 50.0320 -57.0350 57° Northeast 521 600 35,000  Level FlightAware
12:20AM 50.0790 -56.9210 57° Northeast 523 602 35,000  Level FlightAware
12:20AM 50.1260 -56.8090 57° Northeast 526 605 35,000  Level FlightAware
12:21AM 50.1710 -56.7000 57° Northeast 529 609 35,000  Level FlightAware
12:22AM 50.2180 -56.5880 57° Northeast 532 612 35,000  Level FlightAware
12:22AM 50.2640 -56.4760 57° Northeast 534 615 35,000  Level FlightAware
12:23AM 50.3120 -56.3580 57° Northeast 536 617 35,000  Level FlightAware
12:23AM 50.3570 -56.2470 58° Northeast 538 619 35,000  Level FlightAware
12:24AM 50.4050 -56.1300 57° Northeast 539 620 35,000  Level FlightAware
12:25AM 50.4510 -56.0160 58° Northeast 540 621 35,000  Level FlightAware
12:25AM 50.4970 -55.9020 58° Northeast 540 621 35,000  Level FlightAware
12:26AM 50.5440 -55.7830 58° Northeast 541 623 35,000  Level FlightAware
12:26AM 50.5900 -55.6690 58° Northeast 540 621 35,000  Level FlightAware
12:27AM 50.6340 -55.5480 60° Northeast 540 621 35,000  Level FlightAware
12:27AM 50.6700 -55.4240 65° Northeast 542 624 35,000  Level FlightAware
12:28AM 50.7110 -55.2780 66° East 542 624 35,000  Level FlightAware
12:29AM 50.7390 -55.1750 67° East 542 624 35,000  Level FlightAware
12:29AM 50.7740 -55.0460 67° East 542 624 35,000  Level FlightAware
12:30AM 50.8090 -54.9170 67° East 542 624 35,000  Level FlightAware
12:30AM 50.8430 -54.7880 67° East 542 624 35,000  Level FlightAware
12:31AM 50.8880 -54.6220 67° East 540 621 35,000  Level FlightAware
12:32AM 50.9290 -54.4660 67° East 537 618 35,000  Level FlightAware
12:33AM 50.9690 -54.3140 67° East 529 609 35,000  Level FlightAware
12:33AM 51.0010 -54.1960 67° East 529 609 35,000  Level FlightAware
12:34AM 51.0520 -53.9950 68° East 530 610 35,000  Level FlightAware
12:35AM 51.0900 -53.8510 67° East 530 610 35,000  Level FlightAware
12:36AM 51.1330 -53.6860 67° East 531 611 35,000  Level FlightAware
12:36AM 51.1670 -53.5500 68° East 530 610 35,000  Level FlightAware
12:37AM 51.2020 -53.4130 68° East 530 610 35,000  Level FlightAware
12:37AM 51.2300 -53.3020 68° East 530 610 35,000  Level FlightAware
12:38AM 51.2580 -53.1910 68° East 530 610 35,000  Level FlightAware
12:39AM 51.2860 -53.0790 68° East 530 610 35,000  Level FlightAware
12:39AM 51.3150 -52.9650 68° East 530 610 35,000  Level FlightAware
12:40AM 51.3440 -52.8510 68° East 530 610 35,000  Level FlightAware
12:41AM 51.3740 -52.7300 68° East 530 610 35,000  Level FlightAware
12:41AM 51.4020 -52.6180 68° East 530 610 35,000  Level FlightAware
12:42AM 51.4300 -52.5070 68° East 530 610 35,000  Level FlightAware
12:42AM 51.4600 -52.3890 68° East 530 610 35,000  Level FlightAware
12:43AM 51.4890 -52.2740 68° East 530 610 35,000  Level FlightAware
12:44AM 51.5170 -52.1620 68° East 530 610 35,000  Level FlightAware
12:44AM 51.5440 -52.0570 68° East 530 610 35,000  Level FlightAware
12:45AM 51.5720 -51.9450 68° East 530 610 35,000  Level FlightAware
12:45AM 51.6000 -51.8330 68° East 530 610 35,000  Level FlightAware
12:46AM 51.6290 -51.7180 68° East 530 610 35,000  Level FlightAware
12:47AM 51.7500 -51.0167 68° East 560 644 35,000  Level Gander Center
12:48AM 51.8167 -50.7833 65° Northeast 560 644 35,000  Level Gander Center
12:49AM 51.8500 -50.5667 76° East 560 644 35,000  Level Gander Center
12:53AM 52.0000 -50.0000 68° East 570 656 35,000  Level ETMS Enhanced Traffic Management System
12:59AM 52.4095 -48.3188 69° East 570 656 35,000  Level FlightAware Transoceanic
01:00AM 52.4660 -48.0761 69° East 570 656 35,000  Level FlightAware Transoceanic
01:01AM 52.5220 -47.8327 69° East 570 656 35,000  Level FlightAware Transoceanic
01:02AM 52.5776 -47.5888 70° East 570 656 35,000  Level FlightAware Transoceanic
01:03AM 52.6326 -47.3443 70° East 570 656 35,000  Level FlightAware Transoceanic
01:04AM 52.6871 -47.0991 70° East 570 656 35,000  Level FlightAware Transoceanic
01:05AM 52.7411 -46.8533 70° East 570 656 35,000  Level FlightAware Transoceanic
01:06AM 52.7946 -46.6070 70° East 570 656 35,000  Level FlightAware Transoceanic
01:07AM 52.8476 -46.3600 71° East 570 656 35,000  Level FlightAware Transoceanic
01:08AM 52.9001 -46.1124 71° East 570 656 35,000  Level FlightAware Transoceanic
01:09AM 52.9521 -45.8642 71° East 570 656 35,000  Level FlightAware Transoceanic
01:10AM 53.0035 -45.6154 71° East 570 656 35,000  Level FlightAware Transoceanic
01:11AM 53.0545 -45.3661 71° East 570 656 35,000  Level FlightAware Transoceanic
01:12AM 53.1049 -45.1161 72° East 570 656 35,000  Level FlightAware Transoceanic
01:13AM 53.1548 -44.8656 72° East 570 656 35,000  Level FlightAware Transoceanic
01:14AM 53.2041 -44.6145 72° East 570 656 35,000  Level FlightAware Transoceanic
01:15AM 53.2529 -44.3628 72° East 570 656 35,000  Level FlightAware Transoceanic
01:16AM 53.3012 -44.1105 72° East 570 656 35,000  Level FlightAware Transoceanic
01:17AM 53.3490 -43.8577 73° East 570 656 35,000  Level FlightAware Transoceanic
01:18AM 53.3962 -43.6043 73° East 570 656 35,000  Level FlightAware Transoceanic
01:19AM 53.4429 -43.3503 73° East 570 656 35,000  Level FlightAware Transoceanic
01:20AM 53.4891 -43.0958 73° East 570 656 35,000  Level FlightAware Transoceanic
01:21AM 53.5347 -42.8407 73° East 570 656 35,000  Level FlightAware Transoceanic
01:22AM 53.5797 -42.5851 74° East 570 656 35,000  Level FlightAware Transoceanic
01:23AM 53.6242 -42.3290 74° East 570 656 35,000  Level FlightAware Transoceanic
01:24AM 53.6682 -42.0723 74° East 570 656 35,000  Level FlightAware Transoceanic
01:25AM 53.7116 -41.8151 74° East 570 656 35,000  Level FlightAware Transoceanic
01:26AM 53.7545 -41.5573 74° East 570 656 35,000  Level FlightAware Transoceanic
01:27AM 53.7968 -41.2990 75° East 570 656 35,000  Level FlightAware Transoceanic
01:28AM 53.8386 -41.0402 75° East 570 656 35,000  Level FlightAware Transoceanic
01:29AM 53.8798 -40.7809 75° East 570 656 35,000  Level FlightAware Transoceanic
01:30AM 53.9204 -40.5211 75° East 570 656 35,000  Level FlightAware Transoceanic
01:31AM 53.9605 -40.2608 75° East 570 656 35,000  Level FlightAware Transoceanic
01:32AM 53.9950 -40.0331 75° East  Level FlightAware Approximate
01:33AM 54.0291 -39.8051 76° East  Level FlightAware Approximate
01:34AM 54.0233 -39.8379 76° East  Level FlightAware Approximate
01:35AM 54.0558 -39.6091 76° East  Level FlightAware Approximate
01:35AM 54.0000 -40.0000 76° East 529 609 35,000  Level ETMS Enhanced Traffic Management System
01:36AM 54.0879 -39.3798 76° East  Level FlightAware Approximate
01:37AM 54.1195 -39.1503 77° East  Level FlightAware Approximate
01:38AM 54.1507 -38.9203 77° East  Level FlightAware Approximate
01:39AM 54.1815 -38.6901 77° East  Level FlightAware Approximate
01:40AM 54.2118 -38.4595 77° East  Level FlightAware Approximate
01:41AM 54.2654 -38.0421 78° East 529 609 35,000  Level FlightAware Transoceanic
01:42AM 54.2964 -37.7956 78° East 529 609 35,000  Level FlightAware Transoceanic
01:43AM 54.3268 -37.5488 78° East 529 609 35,000  Level FlightAware Transoceanic
01:44AM 54.3567 -37.3016 78° East 529 609 35,000  Level FlightAware Transoceanic
01:45AM 54.3862 -37.0540 79° East 529 609 35,000  Level FlightAware Transoceanic
01:46AM 54.4151 -36.8061 79° East 529 609 35,000  Level FlightAware Transoceanic
01:47AM 54.4435 -36.5578 79° East 529 609 35,000  Level FlightAware Transoceanic
01:48AM 54.4714 -36.3092 79° East 529 609 35,000  Level FlightAware Transoceanic
01:49AM 54.4988 -36.0603 79° East 529 609 35,000  Level FlightAware Transoceanic
01:50AM 54.5257 -35.8111 80° East 529 609 35,000  Level FlightAware Transoceanic
01:51AM 54.5520 -35.5615 80° East 529 609 35,000  Level FlightAware Transoceanic
01:52AM 54.5779 -35.3116 80° East 529 609 35,000  Level FlightAware Transoceanic
01:53AM 54.6032 -35.0613 80° East 529 609 35,000  Level FlightAware Transoceanic
01:54AM 54.6280 -34.8108 80° East 529 609 35,000  Level FlightAware Transoceanic
01:55AM 54.6523 -34.5600 81° East 529 609 35,000  Level FlightAware Transoceanic
01:56AM 54.6761 -34.3088 81° East 529 609 35,000  Level FlightAware Transoceanic
01:57AM 54.6993 -34.0574 81° East 529 609 35,000  Level FlightAware Transoceanic
01:58AM 54.7221 -33.8057 81° East 529 609 35,000  Level FlightAware Transoceanic
01:59AM 54.7443 -33.5537 81° East 529 609 35,000  Level FlightAware Transoceanic
02:00AM 54.7660 -33.3015 82° East 529 609 35,000  Level FlightAware Transoceanic
02:01AM 54.7872 -33.0489 82° East 529 609 35,000  Level FlightAware Transoceanic
02:02AM 54.8078 -32.7961 82° East 529 609 35,000  Level FlightAware Transoceanic
02:03AM 54.8279 -32.5431 82° East 529 609 35,000  Level FlightAware Transoceanic
02:04AM 54.8475 -32.2898 82° East 529 609 35,000  Level FlightAware Transoceanic
02:05AM 54.8666 -32.0363 83° East 529 609 35,000  Level FlightAware Transoceanic
02:06AM 54.8851 -31.7825 83° East 529 609 35,000  Level FlightAware Transoceanic
02:07AM 54.9031 -31.5285 83° East 529 609 35,000  Level FlightAware Transoceanic
02:08AM 54.9206 -31.2743 83° East 529 609 35,000  Level FlightAware Transoceanic
02:09AM 54.9375 -31.0198 83° East 529 609 35,000  Level FlightAware Transoceanic
02:10AM 54.9540 -30.7652 84° East 529 609 35,000  Level FlightAware Transoceanic
02:11AM 54.9698 -30.5103 84° East 529 609 35,000  Level FlightAware Transoceanic
02:12AM 54.9852 -30.2553 84° East 529 609 35,000  Level FlightAware Transoceanic
02:13AM 54.9991 -30.0155 84° East  Level FlightAware Approximate
02:14AM 55.0126 -29.7755 84° East  Level FlightAware Approximate
02:15AM 55.0084 -29.7905 86° East  Level FlightAware Approximate
02:16AM 55.0177 -29.5499 86° East  Level FlightAware Approximate
02:17AM 55.0264 -29.3092 86° East  Level FlightAware Approximate
02:17AM 55.0000 -30.0000 86° East 503 579 35,000  Level ETMS Enhanced Traffic Management System
02:18AM 55.0347 -29.0683 86° East  Level FlightAware Approximate
02:19AM 55.0425 -28.8274 87° East  Level FlightAware Approximate
02:20AM 55.0498 -28.5864 87° East  Level FlightAware Approximate
02:21AM 55.0567 -28.3453 87° East  Level FlightAware Approximate
02:22AM 55.0631 -28.1042 87° East  Level FlightAware Approximate
02:23AM 55.0703 -27.8082 88° East 503 579 35,000  Level FlightAware Transoceanic
02:24AM 55.0756 -27.5642 88° East 503 579 35,000  Level FlightAware Transoceanic
02:25AM 55.0805 -27.3202 88° East 503 579 35,000  Level FlightAware Transoceanic
02:26AM 55.0849 -27.0761 88° East 503 579 35,000  Level FlightAware Transoceanic
02:27AM 55.0888 -26.8320 88° East 503 579 35,000  Level FlightAware Transoceanic
02:28AM 55.0922 -26.5878 89° East 503 579 35,000  Level FlightAware Transoceanic
02:29AM 55.0952 -26.3436 89° East 503 579 35,000  Level FlightAware Transoceanic
02:30AM 55.0976 -26.0993 89° East 503 579 35,000  Level FlightAware Transoceanic
02:31AM 55.0996 -25.8551 89° East 503 579 35,000  Level FlightAware Transoceanic
02:32AM 55.1010 -25.6108 89° East 503 579 35,000  Level FlightAware Transoceanic
02:33AM 55.1020 -25.3665 90° East 503 579 35,000  Level FlightAware Transoceanic
02:34AM 55.1025 -25.1222 90° East 503 579 35,000  Level FlightAware Transoceanic
02:35AM 55.1025 -24.8778 90° East 503 579 35,000  Level FlightAware Transoceanic
02:36AM 55.1020 -24.6335 90° East 503 579 35,000  Level FlightAware Transoceanic
02:37AM 55.1010 -24.3892 91° East 503 579 35,000  Level FlightAware Transoceanic
02:38AM 55.0996 -24.1449 91° East 503 579 35,000  Level FlightAware Transoceanic
02:39AM 55.0976 -23.9007 91° East 503 579 35,000  Level FlightAware Transoceanic
02:40AM 55.0952 -23.6564 91° East 503 579 35,000  Level FlightAware Transoceanic
02:41AM 55.0922 -23.4122 91° East 503 579 35,000  Level FlightAware Transoceanic
02:42AM 55.0888 -23.1680 92° East 503 579 35,000  Level FlightAware Transoceanic
02:43AM 55.0849 -22.9239 92° East 503 579 35,000  Level FlightAware Transoceanic
02:44AM 55.0805 -22.6798 92° East 503 579 35,000  Level FlightAware Transoceanic
02:45AM 55.0756 -22.4358 92° East 503 579 35,000  Level FlightAware Transoceanic
02:46AM 55.0703 -22.1918 92° East 503 579 35,000  Level FlightAware Transoceanic
02:47AM 55.0644 -21.9480 93° East 503 579 35,000  Level FlightAware Transoceanic
02:48AM 55.0580 -21.7041 93° East 503 579 35,000  Level FlightAware Transoceanic
02:49AM 55.0512 -21.4604 93° East 503 579 35,000  Level FlightAware Transoceanic
02:50AM 55.0439 -21.2167 93° East 503 579 35,000  Level FlightAware Transoceanic
02:51AM 55.0361 -20.9732 93° East 503 579 35,000  Level FlightAware Transoceanic
02:52AM 55.0278 -20.7297 94° East 503 579 35,000  Level FlightAware Transoceanic
02:53AM 55.0190 -20.4864 94° East 503 579 35,000  Level FlightAware Transoceanic
02:54AM 55.0098 -20.2431 94° East 503 579 35,000  Level FlightAware Transoceanic
02:55AM 55.0001 -20.0026 94° East  Level FlightAware Approximate
02:56AM 54.9898 -19.7623 94° East  Level FlightAware Approximate
02:57AM 55.0204 -19.7668 81° East  Level FlightAware Approximate
02:58AM 55.0408 -19.5282 81° East  Level FlightAware Approximate
02:59AM 55.0608 -19.2894 82° East  Level FlightAware Approximate
03:00AM 55.0802 -19.0503 82° East  Level FlightAware Approximate
03:01AM 55.0993 -18.8110 82° East  Level FlightAware Approximate
03:02AM 55.1178 -18.5714 82° East  Level FlightAware Approximate
03:03AM 55.1359 -18.3317 82° East  Level FlightAware Approximate
03:04AM 55.1535 -18.0917 83° East  Level FlightAware Approximate
03:05AM 55.1706 -17.8515 83° East  Level FlightAware Approximate
03:06AM 55.1872 -17.6111 83° East  Level FlightAware Approximate
03:07AM 55.2034 -17.3705 83° East  Level FlightAware Approximate
03:08AM 55.2191 -17.1298 83° East  Level FlightAware Approximate
03:09AM 55.2343 -16.8888 84° East  Level FlightAware Approximate
03:10AM 55.2491 -16.6476 84° East  Level FlightAware Approximate
03:11AM 55.2634 -16.4063 84° East  Level FlightAware Approximate
03:12AM 55.2772 -16.1648 84° East  Level FlightAware Approximate
03:13AM 55.2905 -15.9232 84° East  Level FlightAware Approximate
03:14AM 55.3034 -15.6814 85° East  Level FlightAware Approximate
03:15AM 55.3157 -15.4394 85° East  Level FlightAware Approximate
03:16AM 55.3276 -15.1973 85° East  Level FlightAware Approximate
03:17AM 55.3390 -14.9550 85° East  Level FlightAware Approximate
03:18AM 55.3500 -14.7126 85° East  Level FlightAware Approximate
03:18AM 55.0580 -14.1660 86° East 513 590 35,000  Level FlightAware
03:19AM 55.3604 -14.4701 86° East  Level FlightAware Approximate
03:19AM 55.0660 -14.0350 84° East 513 590 35,000  Level FlightAware
03:19AM 55.0730 -13.9090 84° East 513 590 35,000  Level FlightAware
03:20AM 55.0810 -13.7830 84° East 513 590 35,000  Level FlightAware
03:21AM 55.0890 -13.6530 84° East 513 590 35,000  Level FlightAware
03:21AM 55.1170 -13.3770 80° East 513 590 35,000  Level FlightAware
03:22AM 55.1280 -13.2190 83° East 513 590 35,000  Level FlightAware
03:23AM 55.1390 -13.0730 82° East 513 590 35,000  Level FlightAware
03:23AM 55.1490 -12.9320 83° East 512 589 35,000  Level FlightAware
03:24AM 55.1590 -12.7870 83° East 511 588 35,000  Level FlightAware
03:24AM 55.1690 -12.6450 83° East 511 588 35,000  Level FlightAware
03:25AM 55.1790 -12.5010 83° East 511 588 35,000  Level FlightAware
03:26AM 55.1900 -12.3380 83° East 511 588 35,000  Level FlightAware
03:26AM 55.2010 -12.1710 83° East 510 587 35,000  Level FlightAware
03:27AM 55.2080 -12.0520 84° East 509 586 35,000  Level FlightAware
03:27AM 55.2180 -11.9080 83° East 508 585 35,000  Level FlightAware
03:28AM 55.2270 -11.7630 84° East 507 583 35,000  Level FlightAware
03:29AM 55.2370 -11.5990 84° East 507 583 35,000  Level FlightAware
03:29AM 55.2440 -11.4800 84° East 506 582 35,000  Level FlightAware
03:30AM 55.2530 -11.3140 84° East 506 582 35,000  Level FlightAware
03:30AM 55.2610 -11.1950 83° East 505 581 35,000  Level FlightAware
03:31AM 55.2690 -11.0510 84° East 505 581 35,000  Level FlightAware
03:32AM 55.2780 -10.8900 84° East 505 581 35,000  Level FlightAware
03:32AM 55.2840 -10.7730 85° East 505 581 35,000  Level FlightAware
03:33AM 55.2920 -10.6260 84° East 503 579 35,000  Level FlightAware
03:33AM 55.2990 -10.4820 85° East 502 578 35,000  Level FlightAware
03:34AM 55.3060 -10.3420 85° East 502 578 35,000  Level FlightAware
03:34AM 55.3120 -10.2020 86° East 504 580 35,000  Level FlightAware
03:35AM 55.3150 -10.0520 88° East 504 580 35,000  Level FlightAware
03:36AM 55.3190 -9.8920 87° East 504 580 35,000  Level FlightAware
03:36AM 55.3210 -9.7710 88° East 503 579 35,000  Level FlightAware
03:37AM 55.3250 -9.6300 87° East 503 579 35,000  Level FlightAware
03:37AM 55.3280 -9.4830 88° East 502 578 35,000  Level FlightAware
03:38AM 55.3310 -9.3430 88° East 502 578 35,000  Level FlightAware
03:38AM 55.3340 -9.2000 88° East 501 577 35,000  Level FlightAware
03:39AM 55.3360 -9.0590 89° East 501 577 35,000  Level FlightAware
03:40AM 55.3390 -8.9160 88° East 501 577 35,000  Level FlightAware
03:40AM 55.3410 -8.7800 88° East 501 577 35,000  Level FlightAware
03:41AM 55.3430 -8.6320 89° East 500 575 35,000  Level FlightAware
03:41AM 55.3450 -8.4920 89° East 500 575 35,000  Level FlightAware
03:42AM 55.3470 -8.3490 89° East 501 577 35,000  Level FlightAware
03:42AM 55.3320 -8.3580 89° East 466 536 35,000  Level FlightAware UK
03:42AM 55.3331 -8.2361 89° East 466 536 35,000  Level FlightAware UK
03:42AM 55.3480 -8.2340 89° East 501 577 35,000  Level FlightAware
03:43AM 55.3490 -8.0890 89° East 500 575 35,000  Level FlightAware
03:43AM 55.3344 -8.0900 89° East 468 539 35,000  Level FlightAware UK
03:44AM 55.3500 -7.9260 89° East 499 574 35,000  Level FlightAware
03:44AM 55.3520 -7.7830 89° East 497 572 35,000  Level FlightAware
03:45AM 55.3366 -7.6535 89° East 462 532 35,000  Level FlightAware UK
03:45AM 55.3520 -7.6440 89° East 498 573 35,000  Level FlightAware
03:45AM 55.3372 -7.5080 89° East 464 534 35,000  Level FlightAware UK
03:46AM 55.3530 -7.4810 89° East 499 574 35,000  Level FlightAware
03:46AM 55.3540 -7.3260 89° East 500 575 35,000 -360 Level FlightAware
03:47AM 55.3540 -7.1930 90° East 497 572 34,600 -1,020 Descending FlightAware
03:47AM 55.3540 -7.0540 90° East 500 575 33,900 -1,320 Descending FlightAware
03:48AM 55.3540 -6.9050 90° East 504 580 33,100 -1,500 Descending FlightAware
03:48AM 55.3368 -6.7762 90° East 474 545 32,200 -1,260 Descending FlightAware UK
03:49AM 55.3540 -6.7670 90° East 506 582 32,300 -1,560 Climbing FlightAware
03:49AM 55.3530 -6.6190 91° East 511 588 31,300 -1,800 Descending FlightAware
03:50AM 55.3520 -6.4530 91° East 516 594 30,200 -1,680 Descending FlightAware
03:50AM 55.3510 -6.3040 91° East 521 600 29,200 -1,680 Descending FlightAware
03:51AM 55.3500 -6.1570 91° East 519 597 28,300 -1,680 Descending FlightAware
03:51AM 55.3490 -6.0340 91° East 521 600 27,400 -1,860 Descending FlightAware
03:52AM 55.3480 -5.8840 91° East 514 592 26,300 -1,800 Descending FlightAware
03:53AM 55.3289 -5.7475 91° East 476 548 25,300 -1,680 Descending FlightAware UK
03:53AM 55.3460 -5.7170 91° East 506 582 25,200 -1,560 Descending FlightAware
03:53AM 55.3450 -5.5960 91° East 505 581 24,400 -1,680 Descending FlightAware
03:54AM 55.3430 -5.4530 91° East 498 573 23,400 -1,800 Descending FlightAware
03:54AM 55.3231 -5.3322 91° East 466 536 22,400 -1,800 Descending FlightAware UK
03:54AM 55.3410 -5.3140 91° East 490 564 22,400 -1,620 Level FlightAware
03:55AM 55.3380 -5.1740 92° East 487 560 21,400 -1,680 Descending FlightAware
03:55AM 55.3360 -5.0390 91° East 483 556 20,500 -1,740 Descending FlightAware
03:56AM 55.3158 -4.9077 91° East 446 513 19,400 -1,680 Descending FlightAware UK
03:56AM 55.3330 -4.8810 91° East 469 540 19,400 -900 Level FlightAware
03:57AM 55.3350 -4.7710 88° East 456 525 18,900 -1,020 Descending FlightAware
03:57AM 55.3510 -4.6470 77° East 443 510 18,300 -1,080 Descending FlightAware
03:58AM 55.3690 -4.5250 75° East 452 520 17,700 -1,020 Descending FlightAware
03:58AM 55.3890 -4.3970 75° East 442 509 17,100 -1,260 Descending FlightAware
03:59AM 55.4080 -4.2760 74° East 439 505 16,200 -1,560 Descending FlightAware
04:00AM 55.4270 -4.1550 74° East 417 480 15,300 -1,620 Descending FlightAware
04:00AM 55.4440 -4.0430 75° East 396 456 14,400 -1,560 Descending FlightAware
04:01AM 55.4610 -3.9380 74° East 378 435 13,500 -1,560 Descending FlightAware
04:01AM 55.4750 -3.8380 76° East 366 421 12,600 -1,500 Descending FlightAware
04:02AM 55.4900 -3.7360 75° East 355 409 11,800 -1,440 Descending FlightAware
04:02AM 55.5000 -3.6960 66° East 341 392 11,400 -1,200 Descending FlightAware
04:03AM 55.5201 -3.6281 66° East 322 371 10,800 -900 Descending FlightAware UK
04:03AM 55.5390 -3.6150 66° East 327 376 10,800 -900 Level FlightAware
04:03AM 55.5720 -3.5500 48° Northeast 332 382 10,200 -1,020 Descending FlightAware
04:04AM 55.5990 -3.4960 48° Northeast 328 377 9,800 -960 Descending FlightAware
04:04AM 55.6210 -3.4530 48° Northeast 328 377 9,500 -720 Descending FlightAware
04:04AM 55.6350 -3.4260 47° Northeast 326 375 9,400 -720 Descending FlightAware
04:05AM 55.6540 -3.3870 49° Northeast 327 376 9,100 -840 Descending FlightAware
04:05AM 55.6810 -3.3340 48° Northeast 319 367 8,800 -720 Descending FlightAware
04:06AM 55.6980 -3.3010 48° Northeast 308 354 8,600 -780 Descending FlightAware
04:06AM 55.7350 -3.2270 48° Northeast 288 331 8,100 -660 Descending FlightAware
04:06AM 55.7500 -3.1960 49° Northeast 273 314 8,000 -600 Descending FlightAware
04:07AM 55.7690 -3.1580 48° Northeast 270 311 7,700 -780 Descending FlightAware
04:07AM 55.7850 -3.1240 50° Northeast 256 295 7,500 -780 Descending FlightAware
04:07AM 55.8010 -3.0930 47° Northeast 252 290 7,200 -960 Descending FlightAware
04:08AM 55.8060 -3.0870 34° Northeast 248 285 7,100 -1,140 Descending FlightAware
04:08AM 55.8160 -3.0790 24° Northeast 236 272 6,900 -900 Descending FlightAware
04:08AM 55.8470 -3.0680 11° North 229 264 6,500 -1,020 Descending FlightAware
04:09AM 55.8680 -3.0610 11° North 229 264 6,100 -1,080 Descending FlightAware
04:09AM 55.8850 -3.0560 North 231 266 5,900 -1,020 Descending FlightAware
04:09AM 55.9050 -3.0500 10° North 217 250 5,500 -1,080 Descending FlightAware
04:09AM 55.9250 -3.0450 North 210 242 5,200 -1,020 Descending FlightAware
04:10AM 55.9470 -3.0510 351° North 206 237 4,800 -1,320 Descending FlightAware
04:10AM 55.9650 -3.0590 346° North 204 235 4,300 -1,380 Descending FlightAware
04:11AM 55.9840 -3.0680 345° North 200 230 3,900 -900 Descending FlightAware
04:11AM 55.9940 -3.0730 344° North 197 227 3,700 -720 Descending FlightAware
04:11AM 56.0200 -3.0870 343° North 180 207 3,400 -780 Descending FlightAware
04:11AM 56.0250 -3.0960 315° West 165 190 3,300 -480 Descending FlightAware
04:11AM 56.0270 -3.1030 297° West 165 190 3,300 -720 Level FlightAware
04:12AM 56.0280 -3.1090 287° West 162 186 3,200 -1,020 Descending FlightAware
04:12AM 56.0300 -3.1440 276° West 166 191 2,800 -1,080 Descending FlightAware
04:12AM 56.0300 -3.1640 270° West 164 189 2,500 -1,200 Descending FlightAware
04:12AM 56.0290 -3.1700 253° West 163 188 2,400 -960 Descending FlightAware
04:13AM 56.0220 -3.1940 242° Southwest 154 177 2,100 -900 Descending FlightAware
04:13AM 56.0170 -3.2110 242° Southwest 153 176 1,900 -900 Descending FlightAware
04:13AM 56.0090 -3.2340 238° Southwest 152 175 1,600 -900 Descending FlightAware
04:13AM 56.0040 -3.2490 239° Southwest 136 157 1,400 -720 Descending FlightAware
04:14AM 55.9980 -3.2660 238° Southwest 121 139 1,200 -600 Descending FlightAware
04:14AM 55.9930 -3.2820 241° Southwest 106 122 1,000 -600 Descending FlightAware
04:14AM 55.9870 -3.2990 238° Southwest 106 122 800 -540 Descending FlightAware
04:15AM 55.9800 -3.3180 237° Southwest 108 124 600 -540 Descending FlightAware
04:15AM 55.9780 -3.3260 246° West 111 128 500 -720 Descending FlightAware
04:15AM 55.9710 -3.3460 238° Southwest 114 131 200 -600 Descending FlightAware
04:16AM 55.9660 -3.3590 236° Southwest 113 130 100 -420 Descending FlightAware